Time;durP1;ratioP1;P1;durP2;ratioP2;P2;SDS_P1;SDS_P2;PMS_P1;PMS_P2;Temp;Humidity;BMP_temperature;BMP_pressure;BME280_temperature;BME280_humidity;BME280_pressure;Samples;Min_cycle;Max_cycle;Signal;HPM_P1;HPM_P2
2022/10/16 00:00:36;;;;;;;14.77;2.28;;;12.20;99.90;;;;;;5062251;28;20056;-77
2022/10/16 00:03:04;;;;;;;9.93;2.10;;;12.00;99.90;;;;;;5060186;28;20382;-77
2022/10/16 00:05:30;;;;;;;7.22;1.98;;;12.00;99.90;;;;;;5077770;28;20047;-77
2022/10/16 00:07:57;;;;;;;9.90;2.17;;;12.00;99.90;;;;;;5059357;28;20083;-76
2022/10/16 00:10:23;;;;;;;8.73;2.03;;;11.90;99.90;;;;;;5051054;28;20059;-77
2022/10/16 00:12:50;;;;;;;12.75;2.15;;;12.10;99.90;;;;;;5075338;28;20042;-77
2022/10/16 00:15:16;;;;;;;14.38;2.10;;;12.10;99.90;;;;;;5073506;28;20032;-76
2022/10/16 00:17:41;;;;;;;7.60;2.00;;;12.10;99.90;;;;;;5054620;28;20573;-79
2022/10/16 00:20:07;;;;;;;12.55;2.00;;;11.90;99.90;;;;;;5055733;28;20548;-78
2022/10/16 00:22:34;;;;;;;10.07;1.95;;;12.10;99.90;;;;;;5059751;28;20028;-79
2022/10/16 00:25:00;;;;;;;9.07;2.58;;;12.10;99.90;;;;;;5041488;28;20041;-77
2022/10/16 00:27:26;;;;;;;10.35;3.38;;;11.90;99.90;;;;;;5029766;28;20059;-76
2022/10/16 00:29:53;;;;;;;9.15;3.15;;;12.00;99.90;;;;;;5075064;28;20367;-77
2022/10/16 00:32:19;;;;;;;10.43;3.60;;;12.10;99.90;;;;;;5092506;28;20048;-77
2022/10/16 00:34:46;;;;;;;12.68;3.30;;;12.10;99.90;;;;;;5081197;28;20497;-78
2022/10/16 00:37:13;;;;;;;9.55;2.60;;;11.90;99.90;;;;;;5074412;28;20047;-78
2022/10/16 00:39:38;;;;;;;14.45;5.45;;;12.00;99.90;;;;;;5068192;28;20036;-79
2022/10/16 00:42:04;;;;;;;12.50;3.80;;;11.90;99.90;;;;;;5071605;28;20458;-79
2022/10/16 00:44:53;;;;;;;8.55;2.47;;;12.00;99.90;;;;;;5037614;28;20048;-77
2022/10/16 00:47:26;;;;;;;19.00;9.23;;;11.90;99.90;;;;;;5070589;28;20082;-79
2022/10/16 00:49:56;;;;;;;30.63;10.75;;;12.00;99.90;;;;;;5056547;28;20044;-78
2022/10/16 00:52:22;;;;;;;50.67;16.15;;;12.00;99.90;;;;;;5058418;28;20050;-78
2022/10/16 00:54:49;;;;;;;56.65;16.50;;;12.00;99.90;;;;;;5056015;28;20047;-79
2022/10/16 00:57:15;;;;;;;90.13;23.27;;;12.10;99.90;;;;;;5058616;28;20043;-77
2022/10/16 00:59:43;;;;;;;113.60;29.35;;;12.00;99.90;;;;;;5058141;28;20028;-77
2022/10/16 01:02:14;;;;;;;45.83;12.27;;;12.10;99.90;;;;;;5058321;28;20043;-80
2022/10/16 01:04:44;;;;;;;35.38;9.20;;;12.10;99.90;;;;;;5057630;28;20035;-78
2022/10/16 01:07:25;;;;;;;107.55;28.10;;;12.10;99.90;;;;;;5068581;28;20471;-78
2022/10/16 01:09:54;;;;;;;52.13;14.70;;;12.10;99.90;;;;;;5057082;28;20070;-79
2022/10/16 01:12:41;;;;;;;67.45;17.92;;;12.00;99.90;;;;;;5054566;28;20114;-78
2022/10/16 01:15:27;;;;;;;35.95;9.95;;;12.00;99.90;;;;;;5054210;28;20430;-78
2022/10/16 01:18:14;;;;;;;32.13;7.93;;;12.20;99.90;;;;;;5046734;28;20063;-78
2022/10/16 01:20:45;;;;;;;77.97;16.80;;;12.10;99.90;;;;;;5074558;28;20055;-79
2022/10/16 01:23:10;;;;;;;67.88;12.73;;;12.20;99.90;;;;;;5057547;28;20130;-79
2022/10/16 01:25:42;;;;;;;153.93;33.20;;;12.10;99.90;;;;;;5057357;28;20173;-77
2022/10/16 01:28:11;;;;;;;135.02;27.33;;;12.10;99.90;;;;;;5073718;28;20044;-78
2022/10/16 01:30:41;;;;;;;78.68;16.15;;;12.10;99.90;;;;;;5063186;28;20133;-79
2022/10/16 01:33:33;;;;;;;94.03;22.20;;;12.10;99.90;;;;;;5074417;28;20044;-79
2022/10/16 01:36:05;;;;;;;29.98;8.55;;;12.10;99.90;;;;;;5075174;28;20055;-77
2022/10/16 01:38:39;;;;;;;31.38;9.15;;;12.10;99.90;;;;;;5075203;28;20048;-78
2022/10/16 01:41:21;;;;;;;32.60;9.93;;;12.20;99.90;;;;;;5082224;28;20483;-78
2022/10/16 01:43:52;;;;;;;57.05;15.63;;;12.20;99.90;;;;;;5071493;28;20474;-80
2022/10/16 01:46:20;;;;;;;16.85;5.80;;;12.20;99.90;;;;;;5055664;28;20055;-78
2022/10/16 01:48:48;;;;;;;27.95;8.85;;;12.10;99.90;;;;;;5041553;28;20183;-79
2022/10/16 01:51:16;;;;;;;33.97;11.88;;;12.10;99.90;;;;;;5037643;28;20060;-78
2022/10/16 01:53:45;;;;;;;22.55;9.05;;;12.30;99.90;;;;;;5037233;28;20051;-79
2022/10/16 01:56:13;;;;;;;17.67;5.60;;;12.20;99.90;;;;;;5051426;28;20135;-80
2022/10/16 01:58:44;;;;;;;21.50;6.93;;;12.20;99.90;;;;;;5057714;28;20081;-80
2022/10/16 02:01:13;;;;;;;12.55;4.80;;;12.30;99.90;;;;;;5063889;28;20494;-77
2022/10/16 02:03:42;;;;;;;20.30;6.95;;;12.30;99.90;;;;;;5073722;28;20044;-78
2022/10/16 02:06:08;;;;;;;10.88;3.90;;;12.30;99.90;;;;;;5054864;28;20044;-76
2022/10/16 02:08:35;;;;;;;13.10;4.93;;;12.40;99.90;;;;;;5056947;28;20040;-77
2022/10/16 02:11:02;;;;;;;11.15;4.40;;;12.30;99.90;;;;;;5054592;28;20039;-75
2022/10/16 02:13:35;;;;;;;24.40;10.65;;;12.30;99.90;;;;;;5037030;28;20041;-78
2022/10/16 02:16:01;;;;;;;8.32;2.65;;;12.40;99.90;;;;;;5065662;28;20049;-78
2022/10/16 02:18:29;;;;;;;16.70;6.82;;;12.40;99.90;;;;;;5071884;28;20411;-77
2022/10/16 02:21:25;;;;;;;20.38;7.07;;;12.40;99.90;;;;;;5053968;28;20101;-78
2022/10/16 02:24:16;;;;;;;12.93;4.07;;;12.50;99.90;;;;;;5046566;28;20048;-78
2022/10/16 02:26:45;;;;;;;15.00;5.47;;;12.50;99.90;;;;;;5040644;28;20467;-78
2022/10/16 02:29:15;;;;;;;16.23;7.15;;;12.50;99.90;;;;;;5056193;28;20060;-77
2022/10/16 02:31:47;;;;;;;20.52;7.65;;;12.50;99.90;;;;;;5073562;28;20407;-81
2022/10/16 02:34:14;;;;;;;14.00;5.05;;;12.50;99.90;;;;;;5042733;28;20032;-79
2022/10/16 02:36:41;;;;;;;20.08;9.55;;;12.50;99.90;;;;;;5069959;28;20044;-77
2022/10/16 02:39:08;;;;;;;17.33;6.25;;;12.50;99.90;;;;;;5072970;28;20044;-77
2022/10/16 02:41:34;;;;;;;13.07;5.47;;;12.50;99.90;;;;;;5053945;28;20052;-77
2022/10/16 02:43:59;;;;;;;14.77;6.53;;;12.60;99.90;;;;;;5068425;28;20071;-77
2022/10/16 02:46:25;;;;;;;13.10;5.53;;;12.50;99.90;;;;;;5037867;28;20046;-77
2022/10/16 02:48:51;;;;;;;12.27;5.53;;;12.50;99.90;;;;;;5071346;28;20081;-78
2022/10/16 02:51:17;;;;;;;12.57;5.32;;;12.50;99.90;;;;;;5073650;28;20054;-80
2022/10/16 02:53:44;;;;;;;10.38;4.50;;;12.50;99.90;;;;;;5069971;28;20060;-77
2022/10/16 02:56:09;;;;;;;15.63;5.75;;;12.50;99.90;;;;;;5056433;28;20068;-79
2022/10/16 02:58:35;;;;;;;10.90;4.15;;;12.60;99.90;;;;;;5062854;28;20084;-76
2022/10/16 03:01:00;;;;;;;12.07;4.70;;;12.60;99.90;;;;;;5056239;28;20068;-77
2022/10/16 03:03:26;;;;;;;12.88;4.40;;;12.50;99.90;;;;;;5071629;28;20052;-77
2022/10/16 03:05:51;;;;;;;10.82;2.72;;;12.50;99.90;;;;;;5056751;28;20044;-77
2022/10/16 03:08:23;;;;;;;6.43;2.20;;;12.50;99.90;;;;;;5073833;28;20043;-78
2022/10/16 03:10:49;;;;;;;6.88;2.08;;;12.50;99.90;;;;;;5060341;28;20044;-78
2022/10/16 03:13:14;;;;;;;11.77;2.33;;;12.40;99.90;;;;;;5049497;28;20040;-77
2022/10/16 03:15:41;;;;;;;5.38;1.83;;;12.50;99.90;;;;;;5020830;28;20044;-79
2022/10/16 03:18:07;;;;;;;5.13;2.17;;;12.50;99.90;;;;;;5052723;28;20456;-77
2022/10/16 03:20:33;;;;;;;9.75;1.92;;;12.50;99.90;;;;;;5053142;28;20072;-78
2022/10/16 03:22:59;;;;;;;5.60;1.55;;;12.50;99.90;;;;;;5056939;28;20125;-78
2022/10/16 03:25:24;;;;;;;2.25;1.70;;;12.50;99.90;;;;;;5059860;28;20039;-79
2022/10/16 03:27:50;;;;;;;5.32;1.42;;;12.40;99.90;;;;;;5087581;28;20032;-78
2022/10/16 03:30:16;;;;;;;6.97;1.63;;;12.40;99.90;;;;;;5039616;28;20056;-78
2022/10/16 03:32:43;;;;;;;9.23;1.63;;;12.40;99.90;;;;;;5056804;28;20047;-78
2022/10/16 03:35:09;;;;;;;4.80;1.48;;;12.50;99.90;;;;;;5055406;28;20458;-77
2022/10/16 03:37:37;;;;;;;5.65;1.38;;;12.30;99.90;;;;;;5061429;28;20172;-78
2022/10/16 03:40:04;;;;;;;3.95;1.48;;;12.40;99.90;;;;;;5074559;28;20161;-77
2022/10/16 03:42:30;;;;;;;7.43;1.45;;;12.50;99.90;;;;;;5058808;28;20056;-79
2022/10/16 03:44:56;;;;;;;5.10;1.70;;;12.40;99.90;;;;;;5059007;28;20399;-78
2022/10/16 03:47:23;;;;;;;6.43;1.45;;;12.50;99.90;;;;;;5060077;28;20058;-77
2022/10/16 03:49:49;;;;;;;11.35;1.55;;;12.40;99.90;;;;;;5077000;28;20044;-78
2022/10/16 03:52:15;;;;;;;4.70;1.63;;;12.40;99.90;;;;;;5076766;28;20187;-77
2022/10/16 03:54:41;;;;;;;8.88;1.63;;;12.40;99.90;;;;;;5042252;28;20044;-78
2022/10/16 03:57:07;;;;;;;5.10;1.50;;;12.40;99.90;;;;;;5077444;28;20048;-79
2022/10/16 03:59:33;;;;;;;8.98;1.65;;;12.30;99.90;;;;;;5076910;28;20047;-79
2022/10/16 04:01:58;;;;;;;10.07;1.63;;;12.30;99.90;;;;;;5084415;28;20044;-74
2022/10/16 04:04:24;;;;;;;12.48;1.92;;;12.20;99.90;;;;;;5085754;28;20035;-78
2022/10/16 04:06:51;;;;;;;6.22;1.60;;;12.10;99.90;;;;;;5063893;28;20044;-77
2022/10/16 04:09:16;;;;;;;8.73;1.58;;;12.10;99.90;;;;;;5066875;28;20055;-77
2022/10/16 04:11:42;;;;;;;7.72;1.90;;;12.10;99.90;;;;;;5061401;28;20051;-79
2022/10/16 04:14:08;;;;;;;6.43;1.40;;;12.00;99.90;;;;;;5057813;28;20089;-76
2022/10/16 04:16:34;;;;;;;11.98;1.77;;;12.00;99.90;;;;;;5077432;28;20119;-77
2022/10/16 04:18:59;;;;;;;7.47;1.73;;;12.00;99.90;;;;;;5059149;28;20040;-77
2022/10/16 04:21:26;;;;;;;5.47;1.65;;;12.00;99.90;;;;;;5041540;28;20080;-78
2022/10/16 04:23:52;;;;;;;5.43;1.60;;;12.00;99.90;;;;;;5058274;28;20391;-78
2022/10/16 04:26:17;;;;;;;5.65;1.98;;;12.00;99.90;;;;;;5077387;28;20044;-80
2022/10/16 04:28:43;;;;;;;4.03;1.83;;;12.00;99.90;;;;;;5077498;28;20084;-79
2022/10/16 04:31:10;;;;;;;7.97;1.48;;;11.90;99.90;;;;;;5057504;28;20040;-79
2022/10/16 04:33:35;;;;;;;3.78;1.67;;;11.90;99.90;;;;;;5074734;28;20086;-78
2022/10/16 04:36:02;;;;;;;10.07;1.92;;;12.00;99.90;;;;;;5075116;28;20459;-79
2022/10/16 04:38:28;;;;;;;3.78;1.80;;;12.10;99.90;;;;;;5059096;28;20040;-79
2022/10/16 04:40:54;;;;;;;6.38;1.52;;;12.00;99.90;;;;;;5060358;28;20032;-78
2022/10/16 04:43:20;;;;;;;5.07;1.77;;;12.00;99.90;;;;;;5075117;28;20121;-79
2022/10/16 04:45:46;;;;;;;5.65;1.73;;;12.00;99.90;;;;;;5059515;28;20093;-77
2022/10/16 04:48:12;;;;;;;5.47;1.63;;;12.00;99.90;;;;;;5058559;28;20048;-78
2022/10/16 04:50:37;;;;;;;4.18;1.73;;;12.00;99.90;;;;;;5058331;28;20055;-77
2022/10/16 04:53:03;;;;;;;6.60;1.80;;;12.00;99.90;;;;;;5074561;28;20070;-78
2022/10/16 04:55:29;;;;;;;5.63;1.40;;;12.10;99.90;;;;;;5066987;28;20036;-77
2022/10/16 04:57:54;;;;;;;7.50;2.20;;;12.20;99.90;;;;;;5054472;28;20056;-78
2022/10/16 05:00:22;;;;;;;9.68;2.13;;;12.30;99.90;;;;;;5067124;28;20035;-77
2022/10/16 05:02:49;;;;;;;5.70;1.70;;;12.30;99.90;;;;;;5075175;28;20413;-79
2022/10/16 05:05:15;;;;;;;10.02;2.08;;;12.30;99.90;;;;;;5058486;28;20040;-78
2022/10/16 05:07:40;;;;;;;9.85;2.13;;;12.30;99.90;;;;;;5072136;28;20498;-80
2022/10/16 05:10:06;;;;;;;9.05;2.03;;;12.20;99.90;;;;;;5075270;28;20104;-78
2022/10/16 05:12:32;;;;;;;4.70;1.80;;;12.30;99.90;;;;;;5068666;28;20048;-79
2022/10/16 05:14:59;;;;;;;6.53;1.75;;;12.30;99.90;;;;;;5070479;28;20067;-80
2022/10/16 05:17:25;;;;;;;4.30;1.70;;;12.30;99.90;;;;;;5038395;28;20126;-79
2022/10/16 05:19:51;;;;;;;6.72;1.83;;;12.30;99.90;;;;;;5065696;28;20462;-76
2022/10/16 05:22:17;;;;;;;10.32;2.08;;;12.30;99.90;;;;;;5044604;28;20060;-78
2022/10/16 05:24:43;;;;;;;4.03;1.80;;;12.20;99.90;;;;;;5038227;28;20036;-77
2022/10/16 05:27:11;;;;;;;6.55;1.98;;;12.20;99.90;;;;;;5065503;28;20059;-77
2022/10/16 05:29:37;;;;;;;8.50;2.13;;;12.20;99.90;;;;;;5053722;28;20118;-79
2022/10/16 05:32:02;;;;;;;5.07;2.28;;;12.10;99.90;;;;;;5056251;28;20047;-79
2022/10/16 05:34:28;;;;;;;3.97;1.77;;;12.30;99.90;;;;;;5069641;28;20048;-79
2022/10/16 05:36:54;;;;;;;10.88;2.30;;;12.30;99.90;;;;;;5041525;28;20127;-79
2022/10/16 05:39:19;;;;;;;7.97;2.20;;;12.30;99.90;;;;;;5063903;28;20043;-78
2022/10/16 05:41:45;;;;;;;7.85;1.92;;;12.30;99.90;;;;;;5089209;28;20087;-77
2022/10/16 05:44:11;;;;;;;10.43;2.35;;;12.30;99.90;;;;;;5032160;28;20089;-78
2022/10/16 05:46:36;;;;;;;9.30;2.20;;;12.30;99.90;;;;;;5057612;28;20083;-77
2022/10/16 05:49:03;;;;;;;7.72;2.10;;;12.30;99.90;;;;;;5017507;28;20041;-79
2022/10/16 05:51:28;;;;;;;7.57;1.98;;;12.30;99.90;;;;;;5048458;28;20043;-78
2022/10/16 05:53:54;;;;;;;5.28;2.00;;;12.30;99.90;;;;;;5041340;28;20044;-80
2022/10/16 05:56:19;;;;;;;5.38;1.77;;;12.30;99.90;;;;;;5052758;28;20427;-77
2022/10/16 05:58:45;;;;;;;12.55;2.30;;;12.20;99.90;;;;;;5035609;28;20051;-78
2022/10/16 06:01:14;;;;;;;9.00;2.42;;;12.30;99.90;;;;;;5053675;28;20067;-76
2022/10/16 06:03:40;;;;;;;6.35;2.17;;;12.30;99.90;;;;;;5035734;28;20047;-79
2022/10/16 06:06:14;;;;;;;9.85;2.53;;;12.20;99.90;;;;;;5036785;28;20032;-77
2022/10/16 06:08:41;;;;;;;6.40;2.30;;;12.20;99.90;;;;;;5037337;28;20032;-79
2022/10/16 06:11:11;;;;;;;7.57;2.42;;;12.20;99.90;;;;;;5036792;28;20510;-77
2022/10/16 06:13:37;;;;;;;8.43;2.60;;;12.10;99.90;;;;;;5057719;28;20044;-77
2022/10/16 06:16:03;;;;;;;6.85;2.53;;;12.10;99.90;;;;;;5041698;28;20174;-79
2022/10/16 06:18:29;;;;;;;9.30;2.20;;;12.10;99.90;;;;;;5030485;28;20110;-76
2022/10/16 06:20:56;;;;;;;9.73;2.78;;;12.20;99.90;;;;;;5018325;28;20044;-77
2022/10/16 06:23:22;;;;;;;13.80;2.92;;;12.20;99.90;;;;;;5040141;28;20082;-77
2022/10/16 06:25:48;;;;;;;6.35;2.67;;;12.20;99.90;;;;;;5053983;28;20036;-77
2022/10/16 06:28:14;;;;;;;11.50;3.10;;;12.30;99.90;;;;;;5052773;28;20055;-78
2022/10/16 06:30:40;;;;;;;11.73;2.42;;;12.20;99.90;;;;;;5038333;28;20113;-79
2022/10/16 06:33:06;;;;;;;7.70;2.67;;;12.30;99.90;;;;;;5053665;28;20052;-78
2022/10/16 06:35:33;;;;;;;6.40;2.95;;;12.50;99.90;;;;;;5035530;28;20048;-78
2022/10/16 06:37:58;;;;;;;8.00;2.58;;;12.50;99.90;;;;;;5050487;28;20075;-76
2022/10/16 06:40:24;;;;;;;7.03;2.88;;;12.50;99.90;;;;;;5033470;28;20041;-79
2022/10/16 06:42:51;;;;;;;7.93;2.88;;;12.40;99.90;;;;;;5050188;28;20048;-77
2022/10/16 06:45:17;;;;;;;13.25;2.70;;;12.50;99.90;;;;;;5020405;28;20047;-78
2022/10/16 06:47:43;;;;;;;8.60;2.80;;;12.50;99.90;;;;;;5085531;28;20418;-79
2022/10/16 06:50:09;;;;;;;5.55;2.35;;;12.50;99.90;;;;;;5056869;28;20040;-77
2022/10/16 06:52:35;;;;;;;10.82;2.70;;;12.50;99.90;;;;;;5073615;28;20036;-78
2022/10/16 06:55:01;;;;;;;9.95;3.00;;;12.60;99.90;;;;;;5053671;28;20052;-77
2022/10/16 06:57:27;;;;;;;9.48;2.63;;;12.70;99.90;;;;;;5073854;28;20044;-78
2022/10/16 06:59:52;;;;;;;8.73;2.72;;;12.70;99.90;;;;;;5058910;28;20048;-80
2022/10/16 07:02:19;;;;;;;10.23;2.83;;;12.70;99.90;;;;;;5077212;28;20040;-76
2022/10/16 07:04:45;;;;;;;8.95;2.80;;;12.80;99.90;;;;;;5075470;28;20498;-79
2022/10/16 07:07:11;;;;;;;6.68;2.58;;;12.70;99.90;;;;;;5060307;28;20048;-79
2022/10/16 07:09:36;;;;;;;5.82;2.40;;;12.70;99.90;;;;;;5058881;28;20048;-78
2022/10/16 07:12:02;;;;;;;9.25;2.55;;;12.80;99.90;;;;;;5084952;28;20062;-78
2022/10/16 07:14:28;;;;;;;13.27;2.60;;;12.80;99.90;;;;;;5065191;28;20075;-80
2022/10/16 07:16:54;;;;;;;11.02;2.25;;;12.80;99.90;;;;;;5058810;28;20044;-79
2022/10/16 07:19:19;;;;;;;7.45;2.47;;;12.80;99.90;;;;;;5085973;28;20032;-77
2022/10/16 07:21:45;;;;;;;9.63;2.60;;;12.90;99.90;;;;;;5057025;28;20040;-76
2022/10/16 07:24:14;;;;;;;6.45;2.20;;;13.00;99.90;;;;;;5061459;28;20504;-77
2022/10/16 07:26:42;;;;;;;7.45;2.35;;;12.90;99.90;;;;;;5077127;28;20059;-79
2022/10/16 07:29:17;;;;;;;6.95;2.22;;;13.00;99.90;;;;;;5073047;28;20103;-79
2022/10/16 07:31:47;;;;;;;6.70;2.20;;;13.00;99.90;;;;;;5074733;28;20044;-78
2022/10/16 07:34:14;;;;;;;8.63;1.90;;;12.90;99.90;;;;;;5075675;28;20079;-76
2022/10/16 07:36:40;;;;;;;10.52;2.28;;;13.00;99.90;;;;;;5060069;28;20044;-79
2022/10/16 07:39:06;;;;;;;9.85;2.35;;;13.00;99.90;;;;;;5096654;28;20046;-77
2022/10/16 07:41:36;;;;;;;6.70;1.92;;;13.10;99.90;;;;;;5065075;28;20052;-78
2022/10/16 07:44:03;;;;;;;11.35;2.42;;;13.10;99.90;;;;;;5056169;28;20048;-79
2022/10/16 07:46:29;;;;;;;9.32;2.35;;;13.20;99.90;;;;;;5040039;28;20048;-78
2022/10/16 07:48:54;;;;;;;6.60;2.47;;;13.20;99.90;;;;;;5064909;28;20040;-79
2022/10/16 07:51:24;;;;;;;7.25;2.53;;;13.20;99.90;;;;;;5051611;28;20045;-77
2022/10/16 07:53:51;;;;;;;7.03;2.30;;;13.10;99.90;;;;;;5058313;28;20109;-78
2022/10/16 07:56:17;;;;;;;8.18;2.30;;;13.10;99.90;;;;;;5068547;28;20032;-79
2022/10/16 07:58:43;;;;;;;7.20;2.45;;;13.00;99.90;;;;;;5057940;28;20189;-79
2022/10/16 08:01:12;;;;;;;8.13;2.42;;;13.20;99.90;;;;;;5057934;28;20028;-75
2022/10/16 08:03:42;;;;;;;11.80;2.70;;;13.00;99.90;;;;;;5063523;28;20036;-78
2022/10/16 08:06:09;;;;;;;6.90;2.58;;;12.90;99.90;;;;;;5075775;28;20118;-77
2022/10/16 08:08:35;;;;;;;7.43;2.63;;;12.90;99.90;;;;;;5067748;28;20131;-76
2022/10/16 08:11:03;;;;;;;9.32;2.83;;;12.90;99.90;;;;;;5075816;28;20187;-78
2022/10/16 08:13:30;;;;;;;8.70;2.78;;;13.00;99.90;;;;;;5056760;28;20491;-79
2022/10/16 08:15:55;;;;;;;7.15;3.00;;;13.00;99.90;;;;;;5071788;28;20032;-77
2022/10/16 08:18:21;;;;;;;4.80;2.42;;;13.00;99.90;;;;;;5076497;28;20040;-79
2022/10/16 08:20:47;;;;;;;9.07;2.67;;;13.20;99.90;;;;;;5059900;28;20048;-78
2022/10/16 08:23:13;;;;;;;9.68;2.40;;;13.20;99.90;;;;;;5058632;28;20044;-81
2022/10/16 08:25:40;;;;;;;6.53;2.70;;;13.30;99.90;;;;;;5070086;28;20032;-79
2022/10/16 08:28:10;;;;;;;11.60;3.08;;;13.50;99.90;;;;;;5075665;28;20093;-79
2022/10/16 08:30:36;;;;;;;7.22;2.08;;;13.50;99.90;;;;;;5054761;28;20056;-78
2022/10/16 08:33:03;;;;;;;10.65;2.03;;;13.80;99.90;;;;;;5075908;28;20336;-78
2022/10/16 08:35:28;;;;;;;7.47;2.33;;;13.90;99.90;;;;;;5042483;28;20059;-79
2022/10/16 08:37:54;;;;;;;6.80;1.90;;;14.10;99.90;;;;;;5072770;28;20490;-79
2022/10/16 08:40:24;;;;;;;6.93;1.98;;;14.20;99.90;;;;;;5075654;28;20463;-80
2022/10/16 08:43:02;;;;;;;7.25;1.90;;;14.10;99.90;;;;;;5075295;28;20531;-77
2022/10/16 08:45:56;;;;;;;7.43;1.80;;;14.10;99.90;;;;;;5066832;28;20368;-76
2022/10/16 08:48:44;;;;;;;6.82;1.60;;;14.10;99.90;;;;;;5068785;28;20046;-76
2022/10/16 08:51:18;;;;;;;8.07;1.60;;;14.30;99.90;;;;;;5079094;28;20043;-77
2022/10/16 08:53:57;;;;;;;6.80;1.70;;;14.40;99.90;;;;;;5079760;28;20039;-77
2022/10/16 08:56:24;;;;;;;5.47;1.65;;;14.40;99.90;;;;;;5089997;28;20044;-76
2022/10/16 08:58:53;;;;;;;6.95;1.48;;;14.60;99.90;;;;;;5069082;28;20100;-76
2022/10/16 09:01:22;;;;;;;6.00;1.50;;;14.80;99.90;;;;;;5061432;28;20043;-78
2022/10/16 09:03:57;;;;;;;7.93;1.60;;;14.80;99.90;;;;;;5084707;28;20040;-78
2022/10/16 09:06:23;;;;;;;;;;;14.90;99.90;;;;;;5100538;28;20082;-78
2022/10/16 09:09:06;;;;;;;6.55;1.55;;;14.90;99.90;;;;;;5068019;28;19916;-78
2022/10/16 09:12:03;;;;;;;6.45;1.38;;;14.80;99.90;;;;;;5058103;28;20395;-77
2022/10/16 09:14:46;;;;;;;8.05;1.60;;;14.80;99.90;;;;;;5011361;28;20054;-77
2022/10/16 09:17:24;;;;;;;14.82;2.10;;;14.80;99.90;;;;;;5014197;28;20535;-80
2022/10/16 09:20:29;;;;;;;11.98;2.20;;;14.90;99.90;;;;;;5014934;28;20493;-79
2022/10/16 09:23:15;;;;;;;11.15;1.80;;;15.00;99.90;;;;;;5011822;28;20476;-78
2022/10/16 09:25:47;;;;;;;9.20;2.25;;;14.90;99.90;;;;;;5010965;28;20065;-77
2022/10/16 09:28:13;;;;;;;10.25;1.77;;;15.10;99.90;;;;;;4978723;28;20132;-77
2022/10/16 09:30:39;;;;;;;11.30;2.00;;;15.20;99.90;;;;;;4998852;28;20476;-78
2022/10/16 09:33:06;;;;;;;11.10;2.10;;;15.00;99.90;;;;;;4998816;28;20048;-77
2022/10/16 09:35:41;;;;;;;13.75;2.15;;;15.20;99.90;;;;;;4998276;28;20101;-79
2022/10/16 09:38:26;;;;;;;7.82;1.80;;;15.20;99.90;;;;;;4994324;28;20076;-78
2022/10/16 09:40:55;;;;;;;14.38;1.98;;;15.40;99.90;;;;;;4997062;28;20049;-77
2022/10/16 09:43:34;;;;;;;17.85;2.35;;;15.40;99.90;;;;;;5013122;28;20128;-79
2022/10/16 09:46:09;;;;;;;14.63;2.20;;;15.30;99.90;;;;;;5013650;28;20044;-77
2022/10/16 09:48:39;;;;;;;11.02;2.33;;;15.20;99.90;;;;;;5022343;28;20046;-78
2022/10/16 09:51:15;;;;;;;8.48;2.30;;;15.30;99.90;;;;;;5023215;28;20089;-79
2022/10/16 09:53:44;;;;;;;10.52;1.98;;;15.30;99.90;;;;;;5055912;28;20484;-75
2022/10/16 09:56:13;;;;;;;13.45;2.55;;;15.40;99.90;;;;;;5065363;28;20816;-76
2022/10/16 09:58:44;;;;;;;13.27;2.13;;;15.40;99.90;;;;;;5046148;28;20112;-77
2022/10/16 10:01:14;;;;;;;14.05;2.25;;;15.40;99.90;;;;;;5086591;28;20097;-77
2022/10/16 10:03:43;;;;;;;15.50;2.20;;;15.40;99.90;;;;;;5057832;28;20040;-79
2022/10/16 10:06:21;;;;;;;11.13;2.40;;;15.50;99.90;;;;;;5057181;28;20055;-75
2022/10/16 10:09:03;;;;;;;12.85;2.20;;;15.40;99.90;;;;;;5056902;28;20047;-77
2022/10/16 10:11:57;;;;;;;13.93;2.22;;;15.50;99.90;;;;;;5057217;28;20115;-77
2022/10/16 10:14:39;;;;;;;17.25;1.98;;;15.40;99.90;;;;;;5091679;28;20044;-77
2022/10/16 10:17:13;;;;;;;14.23;2.33;;;15.60;99.90;;;;;;5054079;28;20063;-75
2022/10/16 10:19:38;;;;;;;15.80;2.65;;;15.60;99.90;;;;;;5056885;28;20144;-77
2022/10/16 10:22:22;;;;;;;16.83;2.78;;;15.60;99.90;;;;;;5071627;28;20096;-78
2022/10/16 10:25:01;;;;;;;22.23;2.63;;;15.80;99.90;;;;;;5057117;28;20456;-79
2022/10/16 10:27:46;;;;;;;21.00;2.47;;;15.70;99.90;;;;;;5057842;28;20040;-79
2022/10/16 10:30:22;;;;;;;14.63;2.58;;;15.80;99.90;;;;;;5060696;28;20050;-78
2022/10/16 10:33:12;;;;;;;16.63;2.47;;;15.80;99.90;;;;;;5053844;28;20048;-77
2022/10/16 10:35:50;;;;;;;13.57;2.45;;;15.80;99.90;;;;;;5077912;28;20127;-79
2022/10/16 10:38:15;;;;;;;18.55;2.72;;;15.90;99.90;;;;;;5076428;28;20039;-80
2022/10/16 10:41:04;;;;;;;20.38;2.60;;;15.90;99.90;;;;;;5094696;28;20391;-77
2022/10/16 10:43:49;;;;;;;12.55;2.58;;;15.90;99.90;;;;;;5077945;28;20151;-79
2022/10/16 10:46:30;;;;;;;15.95;2.47;;;16.00;99.90;;;;;;5075842;28;20048;-79
2022/10/16 10:49:25;;;;;;;18.42;2.58;;;16.20;99.90;;;;;;5040894;28;20337;-80
2022/10/16 10:52:03;;;;;;;13.95;2.67;;;16.20;99.90;;;;;;5040891;28;20080;-77
2022/10/16 10:54:51;;;;;;;20.27;3.20;;;16.20;99.90;;;;;;5076706;28;20067;-79
2022/10/16 10:57:46;;;;;;;24.30;2.72;;;16.10;99.90;;;;;;5077703;28;20055;-78
2022/10/16 11:00:33;;;;;;;18.33;2.35;;;16.30;99.90;;;;;;5076313;28;20078;-78
2022/10/16 11:03:14;;;;;;;16.17;2.30;;;16.40;99.90;;;;;;5074526;28;20032;-76
2022/10/16 11:06:04;;;;;;;19.27;2.42;;;16.50;99.90;;;;;;5054746;28;20048;-78
2022/10/16 11:08:38;;;;;;;18.10;3.38;;;16.60;99.90;;;;;;5010073;28;20044;-77
2022/10/16 11:11:09;;;;;;;14.82;2.65;;;16.60;99.90;;;;;;5018465;28;20048;-78
2022/10/16 11:14:02;;;;;;;14.82;2.38;;;16.80;99.90;;;;;;5018170;28;20083;-77
2022/10/16 11:16:48;;;;;;;17.00;2.47;;;16.70;99.90;;;;;;5036178;28;20045;-78
2022/10/16 11:19:31;;;;;;;18.63;2.92;;;16.80;99.90;;;;;;5030363;28;20045;-78
2022/10/16 11:22:06;;;;;;;17.17;2.78;;;16.80;99.90;;;;;;5016448;28;20073;-79
2022/10/16 11:25:00;;;;;;;21.70;2.72;;;16.90;99.90;;;;;;5018927;28;20146;-79
2022/10/16 11:27:39;;;;;;;20.35;3.15;;;17.00;99.90;;;;;;4977260;28;20414;-80
2022/10/16 11:30:13;;;;;;;14.05;2.22;;;17.00;99.90;;;;;;4959911;28;20069;-80
2022/10/16 11:33:00;;;;;;;16.08;2.30;;;17.00;99.90;;;;;;4982143;28;20104;-77
2022/10/16 11:35:44;;;;;;;15.48;2.63;;;17.10;99.90;;;;;;4981080;28;20053;-78
2022/10/16 11:38:37;;;;;;;14.63;2.65;;;17.10;99.90;;;;;;4960667;28;20133;-79
2022/10/16 11:41:22;;;;;;;15.20;2.40;;;17.30;99.90;;;;;;4953122;28;20047;-76
2022/10/16 11:44:12;;;;;;;16.73;2.67;;;17.30;99.90;;;;;;4947787;28;20161;-76
2022/10/16 11:46:42;;;;;;;18.63;2.55;;;17.20;99.90;;;;;;4957568;28;20039;-77
2022/10/16 11:49:16;;;;;;;16.10;2.60;;;17.30;99.90;;;;;;4954161;28;20146;-79
2022/10/16 11:52:28;;;;;;;13.48;2.13;;;17.30;99.90;;;;;;4938742;28;20079;-80
2022/10/16 11:55:03;;;;;;;15.73;2.65;;;17.30;99.90;;;;;;4956777;28;20450;-79
2022/10/16 11:57:38;;;;;;;17.17;2.60;;;17.40;99.90;;;;;;4975088;28;20054;-79
2022/10/16 12:00:22;;;;;;;15.05;2.30;;;17.20;99.90;;;;;;4954872;29;20210;-79
2022/10/16 12:03:13;;;;;;;10.38;1.73;;;17.20;99.90;;;;;;4946607;28;20053;-79
2022/10/16 12:06:18;;;;;;;15.90;2.42;;;17.30;99.90;;;;;;4982556;28;20086;-78
2022/10/16 12:08:44;;;;;;;14.65;2.30;;;17.00;99.90;;;;;;5006033;28;20045;-79
2022/10/16 12:11:30;;;;;;;21.58;3.35;;;16.80;99.90;;;;;;4994672;28;20160;-76
2022/10/16 12:14:19;;;;;;;16.77;2.50;;;16.80;99.90;;;;;;4978686;28;20110;-78
2022/10/16 12:16:52;;;;;;;13.95;2.63;;;16.90;99.90;;;;;;4977612;28;20050;-80
2022/10/16 12:19:18;;;;;;;18.17;2.92;;;16.80;99.90;;;;;;5056331;28;20132;-77
2022/10/16 12:21:45;;;;;;;20.20;2.60;;;16.80;99.90;;;;;;5039630;28;20044;-80
2022/10/16 12:24:36;;;;;;;18.40;2.50;;;16.80;99.90;;;;;;5068168;28;20404;-76
2022/10/16 12:27:04;;;;;;;16.30;2.80;;;16.80;99.90;;;;;;5056826;28;20060;-80
2022/10/16 12:29:39;;;;;;;10.82;2.15;;;16.90;99.90;;;;;;5034843;28;20133;-78
2022/10/16 12:32:22;;;;;;;13.55;2.65;;;16.90;99.90;;;;;;5038170;28;20051;-78
2022/10/16 12:34:48;;;;;;;19.55;2.83;;;16.70;99.90;;;;;;5070561;28;20055;-79
2022/10/16 12:37:46;;;;;;;19.60;2.80;;;16.70;99.90;;;;;;5055367;28;20043;-77
2022/10/16 12:40:27;;;;;;;11.15;2.33;;;16.80;99.90;;;;;;4973594;28;20050;-77
2022/10/16 12:42:53;;;;;;;14.75;2.80;;;16.80;99.90;;;;;;4959805;28;20046;-78
2022/10/16 12:45:27;;;;;;;18.98;2.85;;;16.90;99.90;;;;;;5009103;28;20050;-80
2022/10/16 12:47:54;;;;;;;14.43;2.90;;;16.90;99.90;;;;;;4978194;28;20235;-80
2022/10/16 12:50:36;;;;;;;23.17;3.50;;;16.90;99.90;;;;;;4959063;28;20362;-78
2022/10/16 12:53:17;;;;;;;18.02;2.65;;;16.90;99.90;;;;;;4978749;28;20042;-78
2022/10/16 12:56:23;;;;;;;11.60;2.28;;;17.00;99.90;;;;;;4987477;28;20137;-77
2022/10/16 12:58:58;;;;;;;15.93;2.70;;;16.80;99.90;;;;;;4974263;28;20077;-79
2022/10/16 13:01:39;;;;;;;17.20;2.60;;;16.80;99.90;;;;;;4959230;28;20153;-77